Latest Weather Observations for North Island

IDW60801

Issued at 5:33 am WST Tuesday 6 December 2022 (issued every 10 minutes, with the page automatically refreshed every 10 minutes)

About weather observations | Map of weather stations | Latest weather observations for WA | Other Formats
Station Details ID: 008290 Name: NORTH ISLAND Lat: -28.30 Lon: 113.59 Height: 2.2 m
Data from the previous 72 hours. | See also: Recent months at North Island
Date/Time
WST
Temp
°C
App
Temp
°C
Dew
Point
°C
Rel
Hum
%
Delta-T
°C
Wind Press
QNH
hPa
Press
MSL
hPa
Rain since
9am
mm
Dir  Spd
km/h
Gust
km/h
Spd
kts
Gust
kts
06/05:30am 20.3 15.9 16.7 80 2.2 S 35 44 19 24 1011.8 1011.8 0.0
06/05:00am 20.3 16.3 16.7 80 2.2 S 33 43 18 23 1011.6 1011.6 0.0
06/04:30am 20.2 16.1 16.4 79 2.3 SSE 33 43 18 23 1011.5 1011.5 0.0
06/04:00am 20.1 15.2 16.3 79 2.3 SSE 37 46 20 25 1011.3 1011.3 0.0
06/03:30am 20.3 15.6 15.9 76 2.6 SSE 35 46 19 25 1011.4 1011.4 0.0
06/03:00am 20.3 15.8 15.5 74 2.8 SSE 33 43 18 23 1011.6 1011.6 0.0
06/02:30am 20.3 15.8 15.3 73 3.0 SSE 33 41 18 22 1012.1 1012.1 0.0
06/02:00am 20.3 16.3 15.1 72 3.1 SSE 30 35 16 19 1012.4 1012.4 0.0
06/01:30am 20.0 15.5 14.8 72 3.0 SSE 32 41 17 22 1012.6 1012.6 0.0
06/01:00am 20.0 14.8 14.6 71 3.1 SSE 35 44 19 24 1012.7 1012.7 0.0
06/12:30am 20.1 15.6 15.3 74 2.8 SSE 33 41 18 22 1012.9 1012.9 0.0
06/12:00am 20.0 15.4 15.0 73 2.9 SSE 33 43 18 23 1013.1 1013.1 0.0
 
Date/Time
WST
Temp
°C
App
Temp
°C
Dew
Point
°C
Rel
Hum
%
Delta-T
°C
Wind Press
QNH
hPa
Press
MSL
hPa
Rain since
9am
mm
Dir  Spd
km/h
Gust
km/h
Spd
kts
Gust
kts
05/11:30pm 20.1 15.6 15.5 75 2.7 S 33 44 18 24 1013.3 1013.3 0.0
05/11:00pm 20.2 15.6 15.2 73 2.9 SSE 33 43 18 23 1013.3 1013.3 0.0
05/10:30pm 20.3 14.7 15.5 74 2.8 S 39 48 21 26 1013.3 1013.3 0.0
05/10:00pm 20.3 14.7 15.5 74 2.8 S 39 48 21 26 1013.4 1013.4 0.0
05/09:30pm 20.5 15.4 15.9 75 2.7 S 37 46 20 25 1013.2 1013.2 0.0
05/09:00pm 20.2 14.5 15.2 73 2.9 SSE 39 48 21 26 1013.0 1013.0 0.0
05/08:30pm 20.4 14.8 15.4 73 3.0 SSE 39 48 21 26 1013.0 1013.0 0.0
05/08:00pm 20.5 14.9 15.5 73 3.0 S 39 50 21 27 1012.8 1012.8 0.0
05/07:30pm 20.6 15.2 16.0 75 2.8 S 39 48 21 26 1012.5 1012.5 0.0
05/07:00pm 20.7 14.8 15.7 73 3.0 S 41 50 22 27 1012.3 1012.3 0.0
05/06:30pm 21.0 15.7 16.2 74 2.9 S 39 46 21 25 1012.3 1012.3 0.0
05/06:00pm 21.4 16.2 16.6 74 2.9 S 39 48 21 26 1012.2 1012.2 0.0
05/05:30pm 21.8 16.1 16.3 71 3.3 S 41 48 22 26 1012.1 1012.1 0.0
05/05:00pm 22.3 17.6 16.8 71 3.4 S 37 46 20 25 1012.0 1012.0 0.0
05/04:30pm 22.4 16.6 16.0 67 3.9 S 41 48 22 26 1012.1 1012.1 0.0
05/04:00pm 23.8 18.4 16.1 62 4.7 S 39 46 21 25 1012.1 1012.1 0.0
05/03:30pm 23.4 18.3 16.9 67 4.0 S 39 50 21 27 1012.2 1012.2 0.0
05/03:00pm 23.4 18.5 16.4 64 4.3 S 37 44 20 24 1012.2 1012.2 0.0
05/02:30pm 24.2 19.2 16.2 61 4.9 S 37 46 20 25 1012.1 1012.1 0.0
05/02:00pm 24.5 19.7 16.7 61 4.8 S 37 43 20 23 1012.1 1012.1 0.0
05/01:30pm 23.9 19.3 17.2 66 4.1 S 37 44 20 24 1012.3 1012.3 0.0
05/01:00pm 24.7 20.9 16.7 61 4.9 S 32 41 17 22 1012.5 1012.5 0.0
05/12:30pm 24.6 20.2 16.6 61 4.9 S 35 43 19 23 1012.6 1012.6 0.0
05/12:00pm 25.4 21.6 17.3 61 5.0 S 33 41 18 22 1012.6 1012.6 0.0
05/11:30am 24.3 20.5 16.8 63 4.6 S 32 37 17 20 1012.8 1012.8 0.0
05/11:00am 24.2 20.7 16.5 62 4.7 SSE 30 37 16 20 1012.9 1012.9 0.0
05/10:30am 24.0 20.4 16.3 62 4.7 SSE 30 37 16 20 1013.0 1013.0 0.0
05/10:00am 23.8 20.3 16.6 64 4.4 SSE 30 37 16 20 1012.8 1012.8 0.0
05/09:30am 24.1 20.5 17.1 65 4.3 SSE 32 39 17 21 1012.7 1012.7 0.0
05/09:00am 23.9 20.7 17.2 66 4.1 SSE 30 37 16 20 1012.9 1012.9 0.0
05/08:30am 23.1 19.5 17.3 70 3.6 SSE 32 39 17 21 1012.8 1012.8 0.0
05/08:00am 22.6 20.0 18.6 78 2.5 S 30 37 16 20 1012.7 1012.7 0.0
05/07:30am 22.3 19.2 18.3 78 2.5 S 32 39 17 21 1012.4 1012.4 0.0
05/07:00am 21.5 18.0 17.9 80 2.2 S 33 41 18 22 1012.1 1012.1 0.0
05/06:30am 20.8 17.2 17.6 82 2.0 S 33 43 18 23 1011.9 1011.9 0.0
05/06:00am 20.6 17.2 17.6 83 1.8 S 32 41 17 22 1011.9 1011.9 0.0
05/05:30am 20.4 16.7 17.4 83 1.8 S 33 41 18 22 1011.7 1011.7 0.0
05/05:00am 20.2 16.3 17.0 82 1.9 S 33 43 18 23 1011.6 1011.6 0.0
05/04:30am 20.2 15.9 17.0 82 1.9 S 35 44 19 24 1011.3 1011.3 0.0
05/04:00am 20.1 15.7 16.7 81 2.1 S 35 44 19 24 1011.3 1011.3 0.0
05/03:30am 20.1 15.3 16.7 81 2.1 S 37 46 20 25 1011.5 1011.5 0.0
05/03:00am 20.1 15.7 16.7 81 2.1 S 35 44 19 24 1011.9 1011.9 0.0
05/02:30am 20.0 15.1 16.4 80 2.2 S 37 44 20 24 1012.2 1012.2 0.0
05/02:00am 20.0 15.5 16.4 80 2.2 S 35 44 19 24 1012.3 1012.3 0.0
05/01:30am 20.0 15.3 15.8 77 2.5 S 35 44 19 24 1012.5 1012.5 0.0
05/01:00am 20.0 15.4 16.0 78 2.4 S 35 44 19 24 1012.7 1012.7 0.0
05/12:30am 20.1 15.5 16.1 78 2.4 S 35 44 19 24 1013.0 1013.0 0.0
05/12:00am 20.3 15.3 16.1 77 2.5 S 37 44 20 24 1013.2 1013.2 0.0
 
Date/Time
WST
Temp
°C
App
Temp
°C
Dew
Point
°C
Rel
Hum
%
Delta-T
°C
Wind Press
QNH
hPa
Press
MSL
hPa
Rain since
9am
mm
Dir  Spd
km/h
Gust
km/h
Spd
kts
Gust
kts
04/11:30pm 20.4 15.4 16.0 76 2.6 S 37 46 20 25 1013.4 1013.4 0.0
04/11:00pm 20.4 15.4 16.0 76 2.6 S 37 44 20 24 1013.7 1013.7 0.0
04/10:30pm 20.5 15.5 16.1 76 2.6 S 37 46 20 25 1013.9 1013.9 0.0
04/10:00pm 20.5 15.9 16.1 76 2.6 S 35 46 19 25 1014.0 1014.0 0.0
04/09:30pm 20.6 16.0 16.2 76 2.6 S 35 46 19 25 1014.1 1014.1 0.0
04/09:00pm 20.6 15.6 16.0 75 2.8 S 37 43 20 23 1013.9 1013.9 0.0
04/08:30pm 20.7 16.2 16.3 76 2.6 S 35 41 19 22 1013.7 1013.7 0.0
04/08:00pm 20.7 16.1 16.1 75 2.8 S 35 44 19 24 1013.6 1013.6 0.0
04/07:30pm 20.6 16.3 15.8 74 2.9 S 33 41 18 22 1013.4 1013.4 0.0
04/07:00pm 20.8 16.2 16.0 74 2.9 S 35 43 19 23 1013.1 1013.1 0.0
04/06:30pm 20.9 16.5 15.7 72 3.1 S 33 43 18 23 1012.8 1012.8 0.0
04/06:00pm 21.2 16.4 15.5 70 3.4 S 35 44 19 24 1012.4 1012.4 0.0
04/05:30pm 21.5 16.2 15.3 68 3.7 S 37 43 20 23 1012.4 1012.4 0.0
04/05:00pm 22.0 16.6 15.1 65 4.1 S 37 46 20 25 1012.2 1012.2 0.0
04/04:30pm 22.6 18.3 15.9 66 4.0 S 33 39 18 21 1012.2 1012.2 0.0
04/04:00pm 22.6 18.0 15.2 63 4.4 S 33 41 18 22 1012.3 1012.3 0.0
04/03:40pm 22.9 18.9 15.2 62 4.6 S 30 48 16 26 1012.3 1012.3 0.0
04/03:30pm 22.9 18.6 15.5 63 4.4 S 32 39 17 21 1012.4 1012.4 0.0
04/03:00pm 23.2 19.4 15.8 63 4.5 S 30 37 16 20 1012.4 1012.4 0.0
04/02:30pm 23.8 19.3 15.0 57 5.3 S 32 39 17 21 1012.3 1012.3 0.0
04/02:00pm 23.6 19.9 15.9 62 4.7 S 30 37 16 20 1012.6 1012.6 0.0
04/01:30pm 23.5 19.0 14.8 58 5.2 S 32 39 17 21 1012.7 1012.7 0.0
04/01:00pm 23.4 19.5 15.5 61 4.7 SSE 30 37 16 20 1012.9 1012.9 0.0
04/12:30pm 24.5 20.7 15.7 58 5.3 SSE 30 35 16 19 1013.1 1013.1 0.0
04/12:00pm 24.1 20.1 15.1 57 5.4 SSE 30 37 16 20 1013.3 1013.3 0.0
04/11:30am 24.6 20.7 15.5 57 5.5 SSE 30 37 16 20 1013.6 1013.6 0.0
04/11:00am 23.0 19.3 16.1 65 4.2 SSE 30 37 16 20 1013.5 1013.5 0.0
04/10:30am 23.6 19.8 16.6 65 4.3 SSE 32 39 17 21 1013.6 1013.6 0.0
04/10:00am 22.8 18.9 17.0 70 3.6 S 33 41 18 22 1013.3 1013.3 0.0
04/09:30am 23.0 19.4 17.7 72 3.3 S 33 39 18 21 1013.3 1013.3 0.0
04/09:00am 22.9 19.9 17.8 73 3.2 S 30 39 16 21 1013.3 1013.3 0.0
04/08:30am 22.2 18.8 17.6 75 2.8 S 32 39 17 21 1013.1 1013.1 0.0
04/08:00am 22.0 18.4 17.2 74 2.9 S 32 41 17 22 1013.0 1013.0 0.0
04/07:30am 21.4 17.5 17.0 76 2.7 S 33 41 18 22 1012.8 1012.8 0.0
04/07:00am 21.1 17.0 16.5 75 2.8 S 33 41 18 22 1012.5 1012.5 0.0
04/06:30am 20.9 17.3 17.1 79 2.3 S 32 43 17 23 1012.3 1012.3 0.0
04/06:00am 20.6 16.7 17.0 80 2.2 S 33 43 18 23 1012.2 1012.2 0.0
04/05:30am 20.4 16.6 16.6 79 2.3 S 32 37 17 20 1011.9 1011.9 0.0
04/05:00am 20.3 15.8 16.5 79 2.3 S 35 44 19 24 1011.8 1011.8 0.0
04/04:30am 20.1 15.9 16.3 79 2.3 S 33 41 18 22 1011.7 1011.7 0.0
04/04:00am 20.1 15.4 15.9 77 2.5 S 35 43 19 23 1011.6 1011.6 0.0
04/03:30am 20.3 15.7 16.1 77 2.5 S 35 44 19 24 1011.6 1011.6 0.0
04/03:00am 20.4 15.4 16.0 76 2.6 S 37 44 20 24 1011.7 1011.7 0.0
04/02:30am 20.2 15.6 15.0 72 3.1 S 33 43 18 23 1011.9 1011.9 0.0
04/02:00am 20.5 16.5 16.1 76 2.6 S 32 39 17 21 1012.0 1012.0 0.0
04/01:30am 20.5 16.5 16.3 77 2.5 S 32 39 17 21 1012.1 1012.1 0.0
04/01:00am 20.5 15.8 15.9 75 2.7 S 35 43 19 23 1012.3 1012.3 0.0
04/12:30am 20.4 16.4 16.2 77 2.5 SSE 32 39 17 21 1012.3 1012.3 0.0
04/12:00am 20.5 15.7 15.7 74 2.9 SSE 35 44 19 24 1012.6 1012.6 0.0
 
Date/Time
WST
Temp
°C
App
Temp
°C
Dew
Point
°C
Rel
Hum
%
Delta-T
°C
Wind Press
QNH
hPa
Press
MSL
hPa
Rain since
9am
mm
Dir  Spd
km/h
Gust
km/h
Spd
kts
Gust
kts
03/11:30pm 20.5 15.7 15.7 74 2.9 SSE 35 43 19 23 1012.8 1012.8 0.0
03/11:00pm 20.4 15.8 16.0 76 2.6 SSE 35 44 19 24 1013.0 1013.0 0.0
03/10:30pm 20.6 16.5 16.4 77 2.5 SSE 33 43 18 23 1013.2 1013.2 0.0
03/10:00pm 20.6 16.0 16.0 75 2.8 SSE 35 44 19 24 1013.3 1013.3 0.0
03/09:30pm 21.0 15.8 16.6 76 2.7 SSE 39 46 21 25 1013.3 1013.3 0.0
03/09:00pm 20.9 16.7 16.1 74 2.9 SSE 33 43 18 23 1013.1 1013.1 0.0
03/08:30pm 20.8 16.2 16.2 75 2.8 SSE 35 44 19 24 1013.0 1013.0 0.0
03/08:00pm 20.7 16.4 15.9 74 2.9 SSE 33 41 18 22 1012.7 1012.7 0.0
03/07:30pm 20.9 16.2 15.9 73 3.0 S 35 44 19 24 1012.5 1012.5 0.0
03/07:00pm 21.1 16.6 16.3 74 2.9 S 35 44 19 24 1012.2 1012.2 0.0
03/06:30pm 21.7 17.8 16.4 72 3.2 S 32 39 17 21 1012.0 1012.0 0.0
03/06:00pm 21.7 17.9 15.8 69 3.5 S 30 37 16 20 1011.8 1011.8 0.0
03/05:30pm 22.8 19.6 16.4 67 3.9 S 28 37 15 20 1011.6 1011.6 0.0
03/05:00pm 22.7 18.2 14.8 61 4.7 S 32 37 17 20 1011.4 1011.4 0.0
03/04:30pm 23.8 20.1 16.1 62 4.7 S 30 35 16 19 1011.2 1011.2 0.0
03/04:00pm 24.5 21.3 16.2 60 5.1 S 28 37 15 20 1011.2 1011.2 0.0
03/03:30pm 24.1 20.9 15.3 58 5.3 S 26 33 14 18 1011.3 1011.3 0.0
03/03:00pm 24.8 21.9 15.1 54 5.8 S 24 30 13 16 1011.4 1011.4 0.0
03/02:30pm 25.3 22.4 16.2 57 5.6 S 26 30 14 16 1011.5 1011.5 0.0
03/02:00pm 24.0 20.9 14.4 55 5.7 SSW 24 32 13 17 1011.6 1011.6 0.0
03/01:30pm 24.6 21.7 15.0 55 5.7 SSW 24 30 13 16 1011.7 1011.7 0.0
03/01:00pm 24.6 21.6 14.7 54 5.9 S 24 28 13 15 1011.9 1011.9 0.0
03/12:30pm 24.3 22.3 15.5 58 5.3 S 20 26 11 14 1012.1 1012.1 0.0
03/12:00pm 23.9 22.1 15.4 59 5.1 S 19 22 10 12 1012.2 1012.2 0.0
03/11:30am 24.2 22.7 15.4 58 5.3 S 17 22 9 12 1012.4 1012.4 0.0
03/11:00am 23.9 22.4 15.4 59 5.1 S 17 20 9 11 1012.6 1012.6 0.0
03/10:30am 23.6 22.8 15.1 59 5.1 SE 13 20 7 11 1012.6 1012.6 0.0
03/10:00am 22.9 22.4 16.0 65 4.2 ESE 13 19 7 10 1012.8 1012.8 0.0
03/09:30am 21.5 20.4 15.3 68 3.7 ESE 15 19 8 10 1012.9 1012.9 0.0
03/09:00am 22.1 19.9 14.5 62 4.5 SSE 19 24 10 13 1012.8 1012.8 0.0
03/08:30am 22.5 20.3 14.4 60 4.8 SSE 19 22 10 12 1013.0 1013.0 0.0
03/08:00am 21.9 19.4 14.0 61 4.6 SE 20 26 11 14 1012.8 1012.8 0.0
03/07:30am 21.3 18.2 14.5 65 4.0 SE 24 30 13 16 1012.5 1012.5 0.0
03/07:00am 20.7 17.6 14.4 67 3.7 SE 24 30 13 16 1012.0 1012.0 0.0
03/06:30am 20.0 16.3 13.9 68 3.5 SE 26 32 14 17 1011.4 1011.4 0.0
03/06:00am 19.7 15.8 13.4 67 3.6 SE 26 33 14 18 1011.0 1011.0 0.0

Other formats

Comma delimited format used in spreadsheet applications
http://www.bom.gov.au/fwo/IDW60801/IDW60801.94405.axf

JavaScript Object Notation format (JSON) in row-major order
http://www.bom.gov.au/fwo/IDW60801/IDW60801.94405.json

Data quality

Most of these data are generated automatically and are frequently updated. Quality checks on data are not normally performed. It is possible for incorrect values to appear. Refer to information at About Latest Weather Observations and please check the disclaimer before using these data.